sensor_id;sensor_type;location;lat;lon;timestamp;pressure;altitude;pressure_sealevel;temperature;humidity
49341;BME280;35209;51.050;13.678;2022-08-25T00:02:09;100340.03;;;18.50;100.00
49341;BME280;35209;51.050;13.678;2022-08-25T00:07:11;100328.13;;;18.72;100.00
49341;BME280;35209;51.050;13.678;2022-08-25T00:12:18;100332.53;;;18.43;100.00
49341;BME280;35209;51.050;13.678;2022-08-25T00:17:20;100333.25;;;18.30;100.00
49341;BME280;35209;51.050;13.678;2022-08-25T00:22:22;100324.44;;;18.44;100.00
49341;BME280;35209;51.050;13.678;2022-08-25T00:27:23;100333.09;;;18.48;100.00
49341;BME280;35209;51.050;13.678;2022-08-25T00:32:26;100333.78;;;18.21;100.00
49341;BME280;35209;51.050;13.678;2022-08-25T00:37:28;100334.88;;;18.33;100.00
49341;BME280;35209;51.050;13.678;2022-08-25T00:42:30;100329.75;;;18.14;100.00
49341;BME280;35209;51.050;13.678;2022-08-25T00:47:32;100326.94;;;18.17;100.00
49341;BME280;35209;51.050;13.678;2022-08-25T00:52:40;100324.00;;;18.22;100.00
49341;BME280;35209;51.050;13.678;2022-08-25T00:58:07;100314.19;;;18.08;100.00
49341;BME280;35209;51.050;13.678;2022-08-25T01:03:16;100311.81;;;18.18;100.00
49341;BME280;35209;51.050;13.678;2022-08-25T01:08:21;100313.34;;;17.92;100.00
49341;BME280;35209;51.050;13.678;2022-08-25T01:13:44;100311.22;;;17.82;100.00
49341;BME280;35209;51.050;13.678;2022-08-25T01:18:50;100313.97;;;17.81;100.00
49341;BME280;35209;51.050;13.678;2022-08-25T01:23:53;100310.84;;;17.73;100.00
49341;BME280;35209;51.050;13.678;2022-08-25T01:29:00;100312.31;;;17.78;100.00
49341;BME280;35209;51.050;13.678;2022-08-25T01:34:20;100313.97;;;17.81;100.00
49341;BME280;35209;51.050;13.678;2022-08-25T01:39:23;100314.88;;;17.96;100.00
49341;BME280;35209;51.050;13.678;2022-08-25T01:44:25;100312.31;;;17.94;100.00
49341;BME280;35209;51.050;13.678;2022-08-25T01:49:27;100307.50;;;17.69;100.00
49341;BME280;35209;51.050;13.678;2022-08-25T01:54:29;100311.72;;;17.73;100.00
49341;BME280;35209;51.050;13.678;2022-08-25T01:59:30;100310.25;;;17.99;100.00
49341;BME280;35209;51.050;13.678;2022-08-25T02:04:32;100307.94;;;17.93;100.00
49341;BME280;35209;51.050;13.678;2022-08-25T02:09:36;100305.19;;;17.79;100.00
49341;BME280;35209;51.050;13.678;2022-08-25T02:14:37;100307.94;;;17.61;100.00
49341;BME280;35209;51.050;13.678;2022-08-25T02:19:41;100311.97;;;17.69;100.00
49341;BME280;35209;51.050;13.678;2022-08-25T02:24:43;100299.44;;;17.71;100.00
49341;BME280;35209;51.050;13.678;2022-08-25T02:29:45;100301.69;;;17.94;100.00
49341;BME280;35209;51.050;13.678;2022-08-25T02:34:47;100296.53;;;17.91;100.00
49341;BME280;35209;51.050;13.678;2022-08-25T02:39:49;100293.09;;;17.73;100.00
49341;BME280;35209;51.050;13.678;2022-08-25T02:44:51;100301.44;;;17.67;100.00
49341;BME280;35209;51.050;13.678;2022-08-25T02:49:52;100301.97;;;17.74;100.00
49341;BME280;35209;51.050;13.678;2022-08-25T02:54:55;100297.22;;;17.79;100.00
49341;BME280;35209;51.050;13.678;2022-08-25T02:59:57;100302.00;;;18.04;100.00
49341;BME280;35209;51.050;13.678;2022-08-25T03:04:59;100296.78;;;17.86;100.00
49341;BME280;35209;51.050;13.678;2022-08-25T03:10:07;100291.22;;;17.91;100.00
49341;BME280;35209;51.050;13.678;2022-08-25T03:15:10;100289.94;;;17.82;100.00
49341;BME280;35209;51.050;13.678;2022-08-25T03:20:14;100287.03;;;17.71;100.00
49341;BME280;35209;51.050;13.678;2022-08-25T03:25:17;100276.91;;;17.62;100.00
49341;BME280;35209;51.050;13.678;2022-08-25T03:30:37;100277.41;;;17.53;100.00
49341;BME280;35209;51.050;13.678;2022-08-25T03:35:39;100279.75;;;17.59;100.00
49341;BME280;35209;51.050;13.678;2022-08-25T03:40:41;100284.63;;;17.67;100.00
49341;BME280;35209;51.050;13.678;2022-08-25T03:45:44;100273.56;;;17.74;100.00
49341;BME280;35209;51.050;13.678;2022-08-25T03:50:49;100277.91;;;17.91;100.00
49341;BME280;35209;51.050;13.678;2022-08-25T03:55:52;100273.56;;;17.58;100.00
49341;BME280;35209;51.050;13.678;2022-08-25T04:00:54;100274.09;;;17.49;100.00
49341;BME280;35209;51.050;13.678;2022-08-25T04:06:01;100275.53;;;17.55;100.00
49341;BME280;35209;51.050;13.678;2022-08-25T04:11:12;100265.84;;;17.54;100.00
49341;BME280;35209;51.050;13.678;2022-08-25T04:16:23;100275.00;;;17.48;100.00
49341;BME280;35209;51.050;13.678;2022-08-25T04:21:26;100272.84;;;17.71;100.00
49341;BME280;35209;51.050;13.678;2022-08-25T04:26:34;100278.38;;;17.52;100.00
49341;BME280;35209;51.050;13.678;2022-08-25T04:31:39;100278.97;;;17.41;100.00
49341;BME280;35209;51.050;13.678;2022-08-25T04:36:41;100275.38;;;17.42;100.00
49341;BME280;35209;51.050;13.678;2022-08-25T04:41:43;100274.63;;;17.40;100.00
49341;BME280;35209;51.050;13.678;2022-08-25T04:46:44;100265.50;;;17.44;100.00
49341;BME280;35209;51.050;13.678;2022-08-25T04:51:46;100276.50;;;17.54;100.00
49341;BME280;35209;51.050;13.678;2022-08-25T04:56:49;100275.63;;;17.53;100.00
49341;BME280;35209;51.050;13.678;2022-08-25T05:01:55;100280.06;;;17.53;100.00
49341;BME280;35209;51.050;13.678;2022-08-25T05:06:59;100280.69;;;17.58;100.00
49341;BME280;35209;51.050;13.678;2022-08-25T05:12:01;100286.00;;;17.58;100.00
49341;BME280;35209;51.050;13.678;2022-08-25T05:17:03;100288.47;;;17.61;100.00
49341;BME280;35209;51.050;13.678;2022-08-25T05:22:05;100293.53;;;17.65;100.00
49341;BME280;35209;51.050;13.678;2022-08-25T05:27:07;100288.78;;;17.71;100.00
49341;BME280;35209;51.050;13.678;2022-08-25T05:32:08;100289.34;;;17.77;100.00
49341;BME280;35209;51.050;13.678;2022-08-25T05:37:10;100292.06;;;17.92;100.00
49341;BME280;35209;51.050;13.678;2022-08-25T05:42:12;100284.06;;;18.07;100.00
49341;BME280;35209;51.050;13.678;2022-08-25T05:47:14;100293.03;;;18.21;100.00
49341;BME280;35209;51.050;13.678;2022-08-25T05:52:16;100284.91;;;18.52;100.00
49341;BME280;35209;51.050;13.678;2022-08-25T05:57:20;100281.53;;;18.79;100.00
49341;BME280;35209;51.050;13.678;2022-08-25T06:02:22;100279.44;;;18.98;100.00
49341;BME280;35209;51.050;13.678;2022-08-25T06:07:46;100271.81;;;19.48;100.00
49341;BME280;35209;51.050;13.678;2022-08-25T06:12:49;100269.44;;;19.57;100.00
49341;BME280;35209;51.050;13.678;2022-08-25T06:17:51;100279.47;;;19.81;100.00
49341;BME280;35209;51.050;13.678;2022-08-25T06:22:58;100283.41;;;20.55;97.30
49341;BME280;35209;51.050;13.678;2022-08-25T06:27:59;100287.88;;;20.54;96.27
49341;BME280;35209;51.050;13.678;2022-08-25T06:33:01;100276.91;;;20.32;100.00
49341;BME280;35209;51.050;13.678;2022-08-25T06:38:03;100281.97;;;20.49;99.09
49341;BME280;35209;51.050;13.678;2022-08-25T06:43:04;100267.56;;;20.64;98.46
49341;BME280;35209;51.050;13.678;2022-08-25T06:48:09;100273.44;;;20.70;97.75
49341;BME280;35209;51.050;13.678;2022-08-25T06:53:11;100272.25;;;20.99;95.00
49341;BME280;35209;51.050;13.678;2022-08-25T06:58:13;100270.25;;;20.90;96.59
49341;BME280;35209;51.050;13.678;2022-08-25T07:03:15;100271.72;;;20.94;96.63
49341;BME280;35209;51.050;13.678;2022-08-25T07:08:17;100265.28;;;21.09;94.93
49341;BME280;35209;51.050;13.678;2022-08-25T07:13:19;100274.75;;;21.39;94.33
49341;BME280;35209;51.050;13.678;2022-08-25T07:18:21;100269.59;;;21.49;93.89
49341;BME280;35209;51.050;13.678;2022-08-25T07:23:23;100264.81;;;21.65;91.90
49341;BME280;35209;51.050;13.678;2022-08-25T07:28:26;100263.09;;;21.88;91.52
49341;BME280;35209;51.050;13.678;2022-08-25T07:33:27;100264.72;;;22.02;90.00
49341;BME280;35209;51.050;13.678;2022-08-25T07:38:29;100266.06;;;22.07;89.93
49341;BME280;35209;51.050;13.678;2022-08-25T07:43:31;100266.94;;;22.32;86.94
49341;BME280;35209;51.050;13.678;2022-08-25T07:48:33;100269.69;;;22.30;87.07
49341;BME280;35209;51.050;13.678;2022-08-25T07:53:36;100264.47;;;22.29;88.65
49341;BME280;35209;51.050;13.678;2022-08-25T07:58:39;100260.28;;;22.82;85.04
49341;BME280;35209;51.050;13.678;2022-08-25T08:03:41;100258.59;;;22.92;84.56
49341;BME280;35209;51.050;13.678;2022-08-25T08:08:52;100260.91;;;23.08;84.52
49341;BME280;35209;51.050;13.678;2022-08-25T08:13:58;100265.88;;;23.35;81.89
49341;BME280;35209;51.050;13.678;2022-08-25T08:19:00;100266.38;;;23.84;75.79
49341;BME280;35209;51.050;13.678;2022-08-25T08:24:04;100256.56;;;23.94;78.50
49341;BME280;35209;51.050;13.678;2022-08-25T08:29:25;100249.63;;;24.12;74.91
49341;BME280;35209;51.050;13.678;2022-08-25T08:34:29;100247.34;;;24.40;73.76
49341;BME280;35209;51.050;13.678;2022-08-25T08:39:30;100237.84;;;24.66;73.34
49341;BME280;35209;51.050;13.678;2022-08-25T08:55:36;100230.56;;;24.88;73.57
49341;BME280;35209;51.050;13.678;2022-08-25T09:00:43;100230.72;;;25.27;70.18
49341;BME280;35209;51.050;13.678;2022-08-25T09:05:55;100223.41;;;25.58;68.10
49341;BME280;35209;51.050;13.678;2022-08-25T09:16:41;100212.63;;;25.67;69.73
49341;BME280;35209;51.050;13.678;2022-08-25T09:28:06;100200.59;;;25.52;70.23
49341;BME280;35209;51.050;13.678;2022-08-25T09:33:10;100194.59;;;26.46;66.55
49341;BME280;35209;51.050;13.678;2022-08-25T09:38:12;100191.63;;;26.76;64.20
49341;BME280;35209;51.050;13.678;2022-08-25T09:43:35;100185.66;;;26.45;65.25
49341;BME280;35209;51.050;13.678;2022-08-25T09:48:52;100179.81;;;26.40;66.33
49341;BME280;35209;51.050;13.678;2022-08-25T09:54:03;100177.41;;;26.47;66.13
49341;BME280;35209;51.050;13.678;2022-08-25T10:04:27;100172.34;;;27.62;64.07
49341;BME280;35209;51.050;13.678;2022-08-25T10:09:32;100159.38;;;28.53;59.07
49341;BME280;35209;51.050;13.678;2022-08-25T10:14:36;100144.69;;;28.98;57.88
49341;BME280;35209;51.050;13.678;2022-08-25T10:19:45;100140.69;;;29.35;54.35
49341;BME280;35209;51.050;13.678;2022-08-25T10:24:49;100127.53;;;29.64;55.14
49341;BME280;35209;51.050;13.678;2022-08-25T10:35:23;100115.31;;;29.52;52.98
49341;BME280;35209;51.050;13.678;2022-08-25T10:40:45;100113.16;;;29.64;51.93
49341;BME280;35209;51.050;13.678;2022-08-25T10:45:52;100110.91;;;29.10;53.60
49341;BME280;35209;51.050;13.678;2022-08-25T10:56:33;100088.03;;;29.13;52.03
49341;BME280;35209;51.050;13.678;2022-08-25T11:07:29;100074.13;;;28.41;53.56
49341;BME280;35209;51.050;13.678;2022-08-25T11:12:43;100070.78;;;28.98;52.32
49341;BME280;35209;51.050;13.678;2022-08-25T11:18:02;100070.94;;;28.20;53.79
49341;BME280;35209;51.050;13.678;2022-08-25T11:23:18;100067.53;;;27.83;54.40
49341;BME280;35209;51.050;13.678;2022-08-25T11:33:29;100060.59;;;28.41;54.83
49341;BME280;35209;51.050;13.678;2022-08-25T11:44:24;100048.91;;;28.83;53.37
49341;BME280;35209;51.050;13.678;2022-08-25T11:49:49;100050.31;;;29.11;51.64
49341;BME280;35209;51.050;13.678;2022-08-25T11:54:51;100034.00;;;30.01;48.21
49341;BME280;35209;51.050;13.678;2022-08-25T12:04:57;100032.84;;;28.81;52.28
49341;BME280;35209;51.050;13.678;2022-08-25T12:15:25;100022.44;;;29.35;48.02
49341;BME280;35209;51.050;13.678;2022-08-25T12:25:54;100001.59;;;29.03;50.48
49341;BME280;35209;51.050;13.678;2022-08-25T12:31:05;99997.88;;;29.21;48.39
49341;BME280;35209;51.050;13.678;2022-08-25T12:36:10;99997.34;;;29.66;48.83
49341;BME280;35209;51.050;13.678;2022-08-25T12:41:27;99992.38;;;29.94;47.69
49341;BME280;35209;51.050;13.678;2022-08-25T12:46:37;100003.53;;;29.91;47.93
49341;BME280;35209;51.050;13.678;2022-08-25T12:51:57;99991.97;;;29.58;49.25
49341;BME280;35209;51.050;13.678;2022-08-25T12:57:04;99989.09;;;29.02;50.02
49341;BME280;35209;51.050;13.678;2022-08-25T13:02:40;99985.03;;;29.23;49.77
49341;BME280;35209;51.050;13.678;2022-08-25T13:13:59;99970.13;;;29.35;46.97
49341;BME280;35209;51.050;13.678;2022-08-25T13:19:05;99964.38;;;29.38;47.16
49341;BME280;35209;51.050;13.678;2022-08-25T13:29:29;99953.09;;;29.82;47.00
49341;BME280;35209;51.050;13.678;2022-08-25T13:34:41;99944.72;;;29.60;46.03
49341;BME280;35209;51.050;13.678;2022-08-25T13:39:43;99947.47;;;29.20;47.36
49341;BME280;35209;51.050;13.678;2022-08-25T13:44:57;99938.53;;;29.11;48.16
49341;BME280;35209;51.050;13.678;2022-08-25T13:55:48;99921.69;;;29.56;44.90
49341;BME280;35209;51.050;13.678;2022-08-25T14:06:28;99928.00;;;29.24;48.70
49341;BME280;35209;51.050;13.678;2022-08-25T14:17:04;99917.84;;;28.53;49.75
49341;BME280;35209;51.050;13.678;2022-08-25T14:22:27;99910.63;;;28.78;50.37
49341;BME280;35209;51.050;13.678;2022-08-25T14:27:28;99909.22;;;28.82;50.15
49341;BME280;35209;51.050;13.678;2022-08-25T14:32:30;99906.38;;;28.83;49.91
49341;BME280;35209;51.050;13.678;2022-08-25T14:37:33;99903.84;;;28.74;50.32
49341;BME280;35209;51.050;13.678;2022-08-25T14:42:35;99895.53;;;28.43;51.85
49341;BME280;35209;51.050;13.678;2022-08-25T14:47:37;99890.97;;;28.43;51.62
49341;BME280;35209;51.050;13.678;2022-08-25T14:52:40;99887.63;;;28.74;49.52
49341;BME280;35209;51.050;13.678;2022-08-25T14:57:43;99878.13;;;28.53;49.73
49341;BME280;35209;51.050;13.678;2022-08-25T15:02:47;99872.56;;;28.55;51.50
49341;BME280;35209;51.050;13.678;2022-08-25T15:07:50;99871.72;;;28.62;50.56
49341;BME280;35209;51.050;13.678;2022-08-25T15:13:12;99869.34;;;28.43;50.53
49341;BME280;35209;51.050;13.678;2022-08-25T15:18:15;99872.72;;;28.61;50.93
49341;BME280;35209;51.050;13.678;2022-08-25T15:23:17;99874.59;;;28.45;52.24
49341;BME280;35209;51.050;13.678;2022-08-25T15:28:20;99876.97;;;28.56;52.30
49341;BME280;35209;51.050;13.678;2022-08-25T15:33:22;99879.59;;;28.31;51.67
49341;BME280;35209;51.050;13.678;2022-08-25T15:38:24;99891.50;;;27.96;53.17
49341;BME280;35209;51.050;13.678;2022-08-25T15:43:26;99877.59;;;27.75;54.59
49341;BME280;35209;51.050;13.678;2022-08-25T15:48:28;99870.28;;;27.67;54.16
49341;BME280;35209;51.050;13.678;2022-08-25T15:53:30;99855.91;;;27.66;54.43
49341;BME280;35209;51.050;13.678;2022-08-25T15:58:32;99846.53;;;27.45;55.77
49341;BME280;35209;51.050;13.678;2022-08-25T16:03:35;99861.81;;;27.54;56.03
49341;BME280;35209;51.050;13.678;2022-08-25T16:08:38;99858.84;;;27.39;56.37
49341;BME280;35209;51.050;13.678;2022-08-25T16:13:42;99842.13;;;27.35;56.22
49341;BME280;35209;51.050;13.678;2022-08-25T16:18:44;99841.22;;;27.61;55.79
49341;BME280;35209;51.050;13.678;2022-08-25T16:23:46;99840.66;;;27.49;56.40
49341;BME280;35209;51.050;13.678;2022-08-25T16:28:49;99836.22;;;27.32;58.02
49341;BME280;35209;51.050;13.678;2022-08-25T16:33:51;99838.78;;;27.41;58.18
49341;BME280;35209;51.050;13.678;2022-08-25T16:38:58;99841.72;;;27.22;59.62
49341;BME280;35209;51.050;13.678;2022-08-25T16:44:03;99843.44;;;27.23;58.89
49341;BME280;35209;51.050;13.678;2022-08-25T16:49:12;99847.84;;;27.06;59.61
49341;BME280;35209;51.050;13.678;2022-08-25T16:54:16;99847.38;;;26.85;59.88
49341;BME280;35209;51.050;13.678;2022-08-25T16:59:36;99841.91;;;26.77;60.91
49341;BME280;35209;51.050;13.678;2022-08-25T17:04:38;99836.38;;;26.60;61.26
49341;BME280;35209;51.050;13.678;2022-08-25T17:09:41;99841.47;;;26.63;61.52
49341;BME280;35209;51.050;13.678;2022-08-25T17:14:42;99846.03;;;26.45;61.90
49341;BME280;35209;51.050;13.678;2022-08-25T17:19:44;99855.09;;;26.26;62.98
49341;BME280;35209;51.050;13.678;2022-08-25T17:24:51;99854.56;;;26.23;62.87
49341;BME280;35209;51.050;13.678;2022-08-25T17:30:01;99856.78;;;26.27;63.70
49341;BME280;35209;51.050;13.678;2022-08-25T17:35:04;99861.63;;;26.06;63.48
49341;BME280;35209;51.050;13.678;2022-08-25T17:40:06;99871.16;;;26.00;63.95
49341;BME280;35209;51.050;13.678;2022-08-25T17:45:11;99876.13;;;25.77;64.50
49341;BME280;35209;51.050;13.678;2022-08-25T17:50:13;99877.22;;;25.75;64.68
49341;BME280;35209;51.050;13.678;2022-08-25T17:55:18;99895.28;;;25.64;65.07
49341;BME280;35209;51.050;13.678;2022-08-25T18:00:24;99899.16;;;25.52;65.84
49341;BME280;35209;51.050;13.678;2022-08-25T18:05:26;99900.94;;;25.34;67.04
49341;BME280;35209;51.050;13.678;2022-08-25T18:10:28;99894.19;;;25.01;68.98
49341;BME280;35209;51.050;13.678;2022-08-25T18:15:31;99893.75;;;25.05;69.27
49341;BME280;35209;51.050;13.678;2022-08-25T18:20:34;99892.22;;;24.93;70.50
49341;BME280;35209;51.050;13.678;2022-08-25T18:25:36;99899.72;;;24.89;70.95
49341;BME280;35209;51.050;13.678;2022-08-25T18:30:42;99903.28;;;24.80;71.52
49341;BME280;35209;51.050;13.678;2022-08-25T18:35:44;99911.34;;;24.61;73.40
49341;BME280;35209;51.050;13.678;2022-08-25T18:40:54;99920.84;;;24.75;73.18
49341;BME280;35209;51.050;13.678;2022-08-25T18:45:57;99912.75;;;24.55;74.66
49341;BME280;35209;51.050;13.678;2022-08-25T18:51:05;99912.06;;;24.53;75.08
49341;BME280;35209;51.050;13.678;2022-08-25T18:56:10;99909.06;;;24.37;76.44
49341;BME280;35209;51.050;13.678;2022-08-25T19:01:16;99913.00;;;24.33;76.50
49341;BME280;35209;51.050;13.678;2022-08-25T19:06:18;99917.94;;;24.28;77.72
49341;BME280;35209;51.050;13.678;2022-08-25T19:11:21;99909.88;;;24.18;78.02
49341;BME280;35209;51.050;13.678;2022-08-25T19:16:39;99910.81;;;24.07;78.96
49341;BME280;35209;51.050;13.678;2022-08-25T19:21:42;99913.25;;;24.10;79.10
49341;BME280;35209;51.050;13.678;2022-08-25T19:26:49;99914.47;;;23.87;80.58
49341;BME280;35209;51.050;13.678;2022-08-25T19:31:55;99915.13;;;23.70;81.65
49341;BME280;35209;51.050;13.678;2022-08-25T19:37:03;99920.53;;;23.58;82.28
49341;BME280;35209;51.050;13.678;2022-08-25T19:42:05;99924.59;;;23.53;83.10
49341;BME280;35209;51.050;13.678;2022-08-25T19:47:07;99917.09;;;23.47;83.56
49341;BME280;35209;51.050;13.678;2022-08-25T19:52:13;99912.41;;;23.39;84.51
49341;BME280;35209;51.050;13.678;2022-08-25T19:57:19;99907.06;;;23.18;85.44
49341;BME280;35209;51.050;13.678;2022-08-25T20:02:42;99910.41;;;23.10;85.80
49341;BME280;35209;51.050;13.678;2022-08-25T20:07:44;99909.94;;;23.05;87.02
49341;BME280;35209;51.050;13.678;2022-08-25T20:12:46;99913.19;;;22.88;89.84
49341;BME280;35209;51.050;13.678;2022-08-25T20:17:48;99913.97;;;22.79;89.85
49341;BME280;35209;51.050;13.678;2022-08-25T20:22:50;99899.00;;;22.76;90.70
49341;BME280;35209;51.050;13.678;2022-08-25T20:27:55;99905.47;;;22.74;91.06
49341;BME280;35209;51.050;13.678;2022-08-25T20:32:56;99907.03;;;22.76;91.35
49341;BME280;35209;51.050;13.678;2022-08-25T20:37:58;99902.19;;;22.70;91.63
49341;BME280;35209;51.050;13.678;2022-08-25T20:43:01;99906.69;;;22.70;91.83
49341;BME280;35209;51.050;13.678;2022-08-25T20:48:04;99912.06;;;22.70;92.12
49341;BME280;35209;51.050;13.678;2022-08-25T20:53:06;99910.00;;;22.41;93.14
49341;BME280;35209;51.050;13.678;2022-08-25T20:58:14;99902.84;;;22.30;94.61
49341;BME280;35209;51.050;13.678;2022-08-25T21:03:16;99904.19;;;22.25;94.16
49341;BME280;35209;51.050;13.678;2022-08-25T21:08:20;99898.59;;;22.28;95.57
49341;BME280;35209;51.050;13.678;2022-08-25T21:13:24;99904.13;;;22.15;95.52
49341;BME280;35209;51.050;13.678;2022-08-25T21:18:26;99901.38;;;22.37;95.98
49341;BME280;35209;51.050;13.678;2022-08-25T21:23:32;99896.16;;;22.25;96.56
49341;BME280;35209;51.050;13.678;2022-08-25T21:28:34;99906.53;;;21.96;98.27
49341;BME280;35209;51.050;13.678;2022-08-25T21:33:37;99897.94;;;21.81;99.55
49341;BME280;35209;51.050;13.678;2022-08-25T21:38:39;99891.69;;;22.03;98.73
49341;BME280;35209;51.050;13.678;2022-08-25T21:43:44;99887.69;;;21.97;99.22
49341;BME280;35209;51.050;13.678;2022-08-25T21:48:48;99894.91;;;21.63;100.00
49341;BME280;35209;51.050;13.678;2022-08-25T21:53:51;99897.59;;;21.74;100.00
49341;BME280;35209;51.050;13.678;2022-08-25T21:59:12;99892.97;;;21.87;100.00
49341;BME280;35209;51.050;13.678;2022-08-25T22:04:14;99888.09;;;21.59;100.00
49341;BME280;35209;51.050;13.678;2022-08-25T22:09:16;99882.16;;;21.44;100.00
49341;BME280;35209;51.050;13.678;2022-08-25T22:14:19;99873.78;;;21.49;100.00
49341;BME280;35209;51.050;13.678;2022-08-25T22:19:21;99880.56;;;21.75;100.00
49341;BME280;35209;51.050;13.678;2022-08-25T22:24:23;99878.25;;;21.71;100.00
49341;BME280;35209;51.050;13.678;2022-08-25T22:29:29;99876.59;;;21.47;100.00
49341;BME280;35209;51.050;13.678;2022-08-25T22:34:33;99868.91;;;21.31;100.00
49341;BME280;35209;51.050;13.678;2022-08-25T22:39:34;99862.19;;;21.26;100.00
49341;BME280;35209;51.050;13.678;2022-08-25T22:44:40;99858.69;;;21.25;100.00
49341;BME280;35209;51.050;13.678;2022-08-25T22:49:43;99850.78;;;21.12;100.00
49341;BME280;35209;51.050;13.678;2022-08-25T22:54:45;99845.66;;;21.09;100.00
49341;BME280;35209;51.050;13.678;2022-08-25T22:59:47;99842.84;;;21.11;100.00
49341;BME280;35209;51.050;13.678;2022-08-25T23:04:49;99836.53;;;21.01;100.00
49341;BME280;35209;51.050;13.678;2022-08-25T23:09:59;99833.63;;;20.92;100.00
49341;BME280;35209;51.050;13.678;2022-08-25T23:15:07;99838.69;;;20.84;100.00
49341;BME280;35209;51.050;13.678;2022-08-25T23:20:09;99826.81;;;20.88;100.00
49341;BME280;35209;51.050;13.678;2022-08-25T23:25:31;99825.59;;;20.92;100.00
49341;BME280;35209;51.050;13.678;2022-08-25T23:30:33;99824.00;;;20.68;100.00
49341;BME280;35209;51.050;13.678;2022-08-25T23:35:42;99817.06;;;20.65;100.00
49341;BME280;35209;51.050;13.678;2022-08-25T23:40:44;99816.44;;;20.61;100.00
49341;BME280;35209;51.050;13.678;2022-08-25T23:45:47;99814.25;;;20.66;100.00
49341;BME280;35209;51.050;13.678;2022-08-25T23:50:50;99811.63;;;20.89;100.00
49341;BME280;35209;51.050;13.678;2022-08-25T23:55:55;99812.69;;;20.75;100.00
